Valor — WDD8691 — position and weather

sailwx.info

Track history (hours):
 
Tides and Currents Weather Stations Pressure Air Temp Water Temp Dewpoint Dewpoint Depression Visibility Wind Speed Wind Dir Waves Ship Positions

Valor

Owner: Crowley Marine Services, Seattle, WA. More information available from US FCC via Universal Licensing System and Coast Guard Vessel Documentation Center.

Last reported at 2016-May-05 13:33 UTC. Time now 2016-May-05 14:21 UTC.
Position N 37°48' W 122°18'.

Length 8 m; draft 5.5 m.

Type: Tug. MMSI: 367301480.

Date/timePositionNaut miles runAvg speedWind from/ knotsBaromVisibWave heightAir tempDewpointWater temp
2016-May-05 13:33N 37°48' W 122°18'4 4.2
2016-May-05 12:33N 37°48' W 122°23'1 0.5
2016-May-05 11:33N 37°48' W 122°24'0 0.0
2016-May-05 10:33N 37°48' W 122°24'3 2.8
2016-May-05 09:33N 37°49' W 122°20'1 0.5
2016-May-05 08:33N 37°49' W 122°20'0 0.0
2016-May-05 07:33N 37°49' W 122°20'5 4.5
2016-May-05 06:32N 37°44' W 122°20'7 6.8
2016-May-05 05:33N 37°49' W 122°26'3 2.9
2016-May-05 04:33N 37°49' W 122°29'3 3.3
2016-May-05 03:33N 37°49' W 122°25'4 4.2
2016-May-05 02:32N 37°49' W 122°20'0 0.0
2016-May-05 01:33N 37°49' W 122°20'0 0.0
2016-May-05 00:33N 37°49' W 122°20'0 0.2
2016-May-04 23:34N 37°49' W 122°20'2 2.4
2016-May-04 22:33N 37°49' W 122°23'3 3.2
2016-May-04 21:33N 37°49' W 122°19'0 0.0
2016-May-04 20:33N 37°49' W 122°19'0 0.0
2016-May-04 19:33N 37°49' W 122°19'0 0.0
2016-May-04 18:33N 37°49' W 122°19'0 0.0
2016-May-04 17:33N 37°49' W 122°19'5 4.6
2016-May-04 16:33N 37°52' W 122°24'4 3.7
2016-May-04 15:33N 37°55' W 122°25'2 2.2
2016-May-04 14:33N 37°55' W 122°22'0 0.1
2016-May-04 13:33N 37°55' W 122°22'3 0.8
2016-May-04 10:17N 37°56' W 122°25'7 9.4
2016-May-04 09:32N 38°02' W 122°21'9 9.6
2016-May-04 08:33N 38°02' W 122°09'1 0.9
2016-May-04 07:33N 38°02' W 122°08'0 0.1
2016-May-04 06:33N 38°02' W 122°08'4 4.0
2016-May-04 05:33N 38°04' W 122°13'6 5.5
2016-May-04 04:33N 38°03' W 122°20'7 6.7
2016-May-04 03:31N 37°58' W 122°26'6 6.6
2016-May-04 02:33N 37°52' W 122°24'5 5.2
2016-May-04 01:33N 37°49' W 122°29'1 1.0
2016-May-04 00:33N 37°48' W 122°30'2 2.4
2016-May-03 23:33N 37°49' W 122°27'7 6.9
2016-May-03 22:33N 37°49' W 122°19'0 0.0
2016-May-03 21:33N 37°49' W 122°19'0 0.0
2016-May-03 20:33N 37°49' W 122°19'0 0.0
2016-May-03 19:33N 37°49' W 122°19'0 0.0
2016-May-03 18:07N 37°49' W 122°19'0 0.0
2016-May-03 17:33N 37°49' W 122°19'2 1.7
2016-May-03 16:33N 37°48' W 122°19'0 0.1
2016-May-03 15:33N 37°48' W 122°19'1 1.4
2016-May-03 14:33N 37°48' W 122°20'2 1.8
2016-May-03 13:33N 37°49' W 122°19'0 0.0
2016-May-03 12:33N 37°49' W 122°19'0 0.0
2016-May-03 11:33N 37°49' W 122°19'0 0.0
2016-May-03 10:33N 37°49' W 122°19'0 0.0
2016-May-03 09:33N 37°49' W 122°19'2 1.6
2016-May-03 08:33N 37°48' W 122°19'4 3.7
2016-May-03 07:34N 37°48' W 122°24'0 0.2
2016-May-03 06:33N 37°48' W 122°24'0 0.0
2016-May-03 05:33N 37°48' W 122°24'3 3.4
2016-May-03 04:33N 37°52' W 122°24'9 8.7
2016-May-03 03:33N 38°00' W 122°24'10 9.4
2016-May-03 02:31N 38°03' W 122°12'4 4.0
2016-May-03 01:32N 38°02' W 122°08'2 0.2
2016-May-02 14:16N 38°03' W 122°11'3 0.5
2016-May-02 08:09N 38°03' W 122°15'0 0.7
2016-May-02 07:32N 38°04' W 122°15'0 0.2
2016-May-02 06:33N 38°04' W 122°15'4 0.2
2016-May-01 12:26N 38°03' W 122°11'4 0.4
2016-May-01 03:32N 38°04' W 122°15'1110.6
2016-May-01 02:32N 37°57' W 122°26'9 9.2
2016-May-01 01:33N 37°48' W 122°24'5 4.8
2016-May-01 00:33N 37°48' W 122°18'1 0.7
2016-Apr-30 23:33N 37°48' W 122°19'2 1.6
2016-Apr-30 22:33N 37°49' W 122°19'0 0.0
2016-Apr-30 21:33N 37°49' W 122°19'0 0.0
2016-Apr-30 20:33N 37°49' W 122°19'0 0.0
2016-Apr-30 19:33N 37°49' W 122°19'0 0.0
2016-Apr-30 18:33N 37°49' W 122°19'0 0.0
2016-Apr-30 17:33N 37°49' W 122°19'0 0.0
2016-Apr-30 16:32N 37°49' W 122°19'0 0.0
2016-Apr-30 15:33N 37°49' W 122°19'0 0.0
2016-Apr-30 14:33N 37°49' W 122°19'0 0.0
2016-Apr-30 13:33N 37°49' W 122°19'0 0.0
2016-Apr-30 12:33N 37°49' W 122°19'0 0.0
2016-Apr-30 11:33N 37°49' W 122°19'0 0.0
2016-Apr-30 10:33N 37°49' W 122°19'0 0.0
2016-Apr-30 09:33N 37°49' W 122°19'0 0.0
2016-Apr-30 08:33N 37°49' W 122°19'0 0.0
2016-Apr-30 07:33N 37°49' W 122°19'0 0.0
2016-Apr-30 06:33N 37°49' W 122°19'5 4.8
2016-Apr-30 05:33N 37°46' W 122°23'0 0.2
2016-Apr-30 04:26N 37°46' W 122°23'0 0.1
2016-Apr-30 03:33N 37°46' W 122°23'0 0.1
2016-Apr-30 02:33N 37°46' W 122°23'1 1.2
2016-Apr-30 01:33N 37°47' W 122°22'2 1.8
2016-Apr-30 00:33N 37°48' W 122°21'2 1.6
2016-Apr-29 23:33N 37°48' W 122°19'2 2.0
2016-Apr-29 22:33N 37°48' W 122°21'2 2.3
2016-Apr-29 21:33N 37°49' W 122°19'0 0.0
2016-Apr-29 20:33N 37°49' W 122°19'3 2.8
2016-Apr-29 19:33N 37°47' W 122°21'5 5.4
2016-Apr-29 18:33N 37°52' W 122°25'1110.5
2016-Apr-29 17:33N 38°02' W 122°22'9 0.2
2016-Apr-28 04:05N 38°03' W 122°11'6 8.7
2016-Apr-28 03:24N 38°03' W 122°18'910.1
2016-Apr-28 02:32N 37°58' W 122°27'7 7.3
2016-Apr-28 01:33N 37°51' W 122°25'5 5.2
2016-Apr-28 00:33N 37°49' W 122°31'4 4.4
2016-Apr-27 23:33N 37°49' W 122°26'2 1.7
2016-Apr-27 22:33N 37°48' W 122°24'0 0.0
2016-Apr-27 21:33N 37°48' W 122°24'0 0.0
2016-Apr-27 20:33N 37°48' W 122°24'1 1.0
2016-Apr-27 19:33N 37°48' W 122°23'3 3.3
2016-Apr-27 18:32N 37°49' W 122°19'0 0.0
2016-Apr-27 17:33N 37°49' W 122°19'0 0.0
2016-Apr-27 16:33N 37°49' W 122°19'4 3.9
2016-Apr-27 15:33N 37°51' W 122°23'1010.0
2016-Apr-27 14:32N 38°01' W 122°23'8 2.7
2016-Apr-27 11:33N 38°04' W 122°14'10 9.8
2016-Apr-27 10:33N 37°60' W 122°25'4 4.4
2016-Apr-27 09:33N 37°55' W 122°25'0 0.1
2016-Apr-27 08:34N 37°55' W 122°25'8 7.8
2016-Apr-27 07:33N 37°49' W 122°19'0 0.1
2016-Apr-27 06:33N 37°49' W 122°19'0 0.0
2016-Apr-27 05:33N 37°49' W 122°19'0 0.0
2016-Apr-27 04:33N 37°49' W 122°19'9 8.6
2016-Apr-27 03:33N 37°49' W 122°30'4 4.2
2016-Apr-27 02:34N 37°51' W 122°25'13 9.2
2016-Apr-27 01:10N 38°03' W 122°20'4 0.8
2016-Apr-26 20:29N 38°01' W 122°23'8 8.3
2016-Apr-26 19:33N 37°53' W 122°25'6 6.5
2016-Apr-26 18:33N 37°49' W 122°19'0 0.0
2016-Apr-26 17:33N 37°49' W 122°19'0 0.0
2016-Apr-26 16:33N 37°49' W 122°19'0 0.0
2016-Apr-26 15:33N 37°49' W 122°19'0 0.0
2016-Apr-26 14:33N 37°49' W 122°19'2 1.6
2016-Apr-26 13:33N 37°49' W 122°20'3 2.6
2016-Apr-26 12:34N 37°48' W 122°17'3 3.4
2016-Apr-26 11:33N 37°48' W 122°21'1 1.3
2016-Apr-26 10:33N 37°49' W 122°20'0 0.0
2016-Apr-26 09:34N 37°49' W 122°20'0 0.0
2016-Apr-26 08:33N 37°49' W 122°20'0 0.0
2016-Apr-26 07:33N 37°49' W 122°20'0 0.0
2016-Apr-26 06:33N 37°49' W 122°20'0 0.0
2016-Apr-26 05:34N 37°49' W 122°20'4 3.6
2016-Apr-26 04:33N 37°51' W 122°23'9 8.7
2016-Apr-26 03:33N 37°60' W 122°25'  
Track history (hours):
 
Tides and Currents Weather Stations Pressure Air Temp Water Temp Dewpoint Dewpoint Depression Visibility Wind Speed Wind Dir Waves Ship Positions

Valor

Owner: Crowley Marine Services, Seattle, WA. More information available from US FCC via Universal Licensing System and Coast Guard Vessel Documentation Center.

Last reported at 2016-May-05 13:33 UTC. Time now 2016-May-05 14:21 UTC.
Position N 37°48' W 122°18'.

Length 8 m; draft 5.5 m.

Type: Tug. MMSI: 367301480.

Date/timePositionNaut miles runAvg speedWind from/ knotsBaromVisibWave heightAir tempDewpointWater temp
2016-May-05 13:33N 37°48' W 122°18'4 4.2
2016-May-05 12:33N 37°48' W 122°23'1 0.5
2016-May-05 11:33N 37°48' W 122°24'0 0.0
2016-May-05 10:33N 37°48' W 122°24'3 2.8
2016-May-05 09:33N 37°49' W 122°20'1 0.5
2016-May-05 08:33N 37°49' W 122°20'0 0.0
2016-May-05 07:33N 37°49' W 122°20'5 4.5
2016-May-05 06:32N 37°44' W 122°20'7 6.8
2016-May-05 05:33N 37°49' W 122°26'3 2.9
2016-May-05 04:33N 37°49' W 122°29'3 3.3
2016-May-05 03:33N 37°49' W 122°25'4 4.2
2016-May-05 02:32N 37°49' W 122°20'0 0.0
2016-May-05 01:33N 37°49' W 122°20'0 0.0
2016-May-05 00:33N 37°49' W 122°20'0 0.2
2016-May-04 23:34N 37°49' W 122°20'2 2.4
2016-May-04 22:33N 37°49' W 122°23'3 3.2
2016-May-04 21:33N 37°49' W 122°19'0 0.0
2016-May-04 20:33N 37°49' W 122°19'0 0.0
2016-May-04 19:33N 37°49' W 122°19'0 0.0
2016-May-04 18:33N 37°49' W 122°19'0 0.0
2016-May-04 17:33N 37°49' W 122°19'5 4.6
2016-May-04 16:33N 37°52' W 122°24'4 3.7
2016-May-04 15:33N 37°55' W 122°25'2 2.2
2016-May-04 14:33N 37°55' W 122°22'0 0.1
2016-May-04 13:33N 37°55' W 122°22'3 0.8
2016-May-04 10:17N 37°56' W 122°25'7 9.4
2016-May-04 09:32N 38°02' W 122°21'9 9.6
2016-May-04 08:33N 38°02' W 122°09'1 0.9
2016-May-04 07:33N 38°02' W 122°08'0 0.1
2016-May-04 06:33N 38°02' W 122°08'4 4.0
2016-May-04 05:33N 38°04' W 122°13'6 5.5
2016-May-04 04:33N 38°03' W 122°20'7 6.7
2016-May-04 03:31N 37°58' W 122°26'6 6.6
2016-May-04 02:33N 37°52' W 122°24'5 5.2
2016-May-04 01:33N 37°49' W 122°29'1 1.0
2016-May-04 00:33N 37°48' W 122°30'2 2.4
2016-May-03 23:33N 37°49' W 122°27'7 6.9
2016-May-03 22:33N 37°49' W 122°19'0 0.0
2016-May-03 21:33N 37°49' W 122°19'0 0.0
2016-May-03 20:33N 37°49' W 122°19'0 0.0
2016-May-03 19:33N 37°49' W 122°19'0 0.0
2016-May-03 18:07N 37°49' W 122°19'0 0.0
2016-May-03 17:33N 37°49' W 122°19'2 1.7
2016-May-03 16:33N 37°48' W 122°19'0 0.1
2016-May-03 15:33N 37°48' W 122°19'1 1.4
2016-May-03 14:33N 37°48' W 122°20'2 1.8
2016-May-03 13:33N 37°49' W 122°19'0 0.0
2016-May-03 12:33N 37°49' W 122°19'0 0.0
2016-May-03 11:33N 37°49' W 122°19'0 0.0
2016-May-03 10:33N 37°49' W 122°19'0 0.0
2016-May-03 09:33N 37°49' W 122°19'2 1.6
2016-May-03 08:33N 37°48' W 122°19'4 3.7
2016-May-03 07:34N 37°48' W 122°24'0 0.2
2016-May-03 06:33N 37°48' W 122°24'0 0.0
2016-May-03 05:33N 37°48' W 122°24'3 3.4
2016-May-03 04:33N 37°52' W 122°24'9 8.7
2016-May-03 03:33N 38°00' W 122°24'10 9.4
2016-May-03 02:31N 38°03' W 122°12'4 4.0
2016-May-03 01:32N 38°02' W 122°08'2 0.2
2016-May-02 14:16N 38°03' W 122°11'3 0.5
2016-May-02 08:09N 38°03' W 122°15'0 0.7
2016-May-02 07:32N 38°04' W 122°15'0 0.2
2016-May-02 06:33N 38°04' W 122°15'4 0.2
2016-May-01 12:26N 38°03' W 122°11'4 0.4
2016-May-01 03:32N 38°04' W 122°15'1110.6
2016-May-01 02:32N 37°57' W 122°26'9 9.2
2016-May-01 01:33N 37°48' W 122°24'5 4.8
2016-May-01 00:33N 37°48' W 122°18'1 0.7
2016-Apr-30 23:33N 37°48' W 122°19'2 1.6
2016-Apr-30 22:33N 37°49' W 122°19'0 0.0
2016-Apr-30 21:33N 37°49' W 122°19'0 0.0
2016-Apr-30 20:33N 37°49' W 122°19'0 0.0
2016-Apr-30 19:33N 37°49' W 122°19'0 0.0
2016-Apr-30 18:33N 37°49' W 122°19'0 0.0
2016-Apr-30 17:33N 37°49' W 122°19'0 0.0
2016-Apr-30 16:32N 37°49' W 122°19'0 0.0
2016-Apr-30 15:33N 37°49' W 122°19'0 0.0
2016-Apr-30 14:33N 37°49' W 122°19'0 0.0
2016-Apr-30 13:33N 37°49' W 122°19'0 0.0
2016-Apr-30 12:33N 37°49' W 122°19'0 0.0
2016-Apr-30 11:33N 37°49' W 122°19'0 0.0
2016-Apr-30 10:33N 37°49' W 122°19'0 0.0
2016-Apr-30 09:33N 37°49' W 122°19'0 0.0
2016-Apr-30 08:33N 37°49' W 122°19'0 0.0
2016-Apr-30 07:33N 37°49' W 122°19'0 0.0
2016-Apr-30 06:33N 37°49' W 122°19'5 4.8
2016-Apr-30 05:33N 37°46' W 122°23'0 0.2
2016-Apr-30 04:26N 37°46' W 122°23'0 0.1
2016-Apr-30 03:33N 37°46' W 122°23'0 0.1
2016-Apr-30 02:33N 37°46' W 122°23'1 1.2
2016-Apr-30 01:33N 37°47' W 122°22'2 1.8
2016-Apr-30 00:33N 37°48' W 122°21'2 1.6
2016-Apr-29 23:33N 37°48' W 122°19'2 2.0
2016-Apr-29 22:33N 37°48' W 122°21'2 2.3
2016-Apr-29 21:33N 37°49' W 122°19'0 0.0
2016-Apr-29 20:33N 37°49' W 122°19'3 2.8
2016-Apr-29 19:33N 37°47' W 122°21'5 5.4
2016-Apr-29 18:33N 37°52' W 122°25'1110.5
2016-Apr-29 17:33N 38°02' W 122°22'9 0.2
2016-Apr-28 04:05N 38°03' W 122°11'6 8.7
2016-Apr-28 03:24N 38°03' W 122°18'910.1
2016-Apr-28 02:32N 37°58' W 122°27'7 7.3
2016-Apr-28 01:33N 37°51' W 122°25'5 5.2
2016-Apr-28 00:33N 37°49' W 122°31'4 4.4
2016-Apr-27 23:33N 37°49' W 122°26'2 1.7
2016-Apr-27 22:33N 37°48' W 122°24'0 0.0
2016-Apr-27 21:33N 37°48' W 122°24'0 0.0
2016-Apr-27 20:33N 37°48' W 122°24'1 1.0
2016-Apr-27 19:33N 37°48' W 122°23'3 3.3
2016-Apr-27 18:32N 37°49' W 122°19'0 0.0
2016-Apr-27 17:33N 37°49' W 122°19'0 0.0
2016-Apr-27 16:33N 37°49' W 122°19'4 3.9
2016-Apr-27 15:33N 37°51' W 122°23'1010.0
2016-Apr-27 14:32N 38°01' W 122°23'8 2.7
2016-Apr-27 11:33N 38°04' W 122°14'10 9.8
2016-Apr-27 10:33N 37°60' W 122°25'4 4.4
2016-Apr-27 09:33N 37°55' W 122°25'0 0.1
2016-Apr-27 08:34N 37°55' W 122°25'8 7.8
2016-Apr-27 07:33N 37°49' W 122°19'0 0.1
2016-Apr-27 06:33N 37°49' W 122°19'0 0.0
2016-Apr-27 05:33N 37°49' W 122°19'0 0.0
2016-Apr-27 04:33N 37°49' W 122°19'9 8.6
2016-Apr-27 03:33N 37°49' W 122°30'4 4.2
2016-Apr-27 02:34N 37°51' W 122°25'13 9.2
2016-Apr-27 01:10N 38°03' W 122°20'4 0.8
2016-Apr-26 20:29N 38°01' W 122°23'8 8.3
2016-Apr-26 19:33N 37°53' W 122°25'6 6.5
2016-Apr-26 18:33N 37°49' W 122°19'0 0.0
2016-Apr-26 17:33N 37°49' W 122°19'0 0.0
2016-Apr-26 16:33N 37°49' W 122°19'0 0.0
2016-Apr-26 15:33N 37°49' W 122°19'0 0.0
2016-Apr-26 14:33N 37°49' W 122°19'2 1.6
2016-Apr-26 13:33N 37°49' W 122°20'3 2.6
2016-Apr-26 12:34N 37°48' W 122°17'3 3.4
2016-Apr-26 11:33N 37°48' W 122°21'1 1.3
2016-Apr-26 10:33N 37°49' W 122°20'0 0.0
2016-Apr-26 09:34N 37°49' W 122°20'0 0.0
2016-Apr-26 08:33N 37°49' W 122°20'0 0.0
2016-Apr-26 07:33N 37°49' W 122°20'0 0.0
2016-Apr-26 06:33N 37°49' W 122°20'0 0.0
2016-Apr-26 05:34N 37°49' W 122°20'4 3.6
2016-Apr-26 04:33N 37°51' W 122°23'9 8.7
2016-Apr-26 03:33N 37°60' W 122°25'  

Dump ship's entire track history